Time;durP1;ratioP1;P1;durP2;ratioP2;P2;SDS_P1;SDS_P2;PMS_P1;PMS_P2;Temp;Humidity;BMP_temperature;BMP_pressure;BME280_temperature;BME280_humidity;BME280_pressure;Samples;Min_cycle;Max_cycle;Signal;HPM_P1;HPM_P2
2024/02/09 00:01:12;;;;;;;16.10;12.82;;;;;;;;;;10245450;28;20078;-62
2024/02/09 00:06:13;;;;;;;17.02;12.07;;;;;;;;;;10236101;28;20396;-65
2024/02/09 00:11:13;;;;;;;19.27;13.35;;;;;;;;;;10246651;28;20043;-62
2024/02/09 00:16:14;;;;;;;20.73;13.35;;;;;;;;;;10245302;28;20031;-63
2024/02/09 00:21:15;;;;;;;18.15;12.95;;;;;;;;;;10245404;28;20031;-63
2024/02/09 00:26:16;;;;;;;23.60;13.63;;;;;;;;;;10245660;28;20034;-64
2024/02/09 00:31:16;;;;;;;19.10;13.02;;;;;;;;;;10244494;28;20035;-62
2024/02/09 00:36:17;;;;;;;17.33;13.00;;;;;;;;;;10244214;28;20420;-63
2024/02/09 00:41:18;;;;;;;20.02;13.15;;;;;;;;;;10245947;28;20106;-63
2024/02/09 00:46:18;;;;;;;16.58;11.38;;;;;;;;;;10245383;28;20372;-62
2024/02/09 00:51:19;;;;;;;21.90;13.40;;;;;;;;;;10244219;28;20027;-62
2024/02/09 00:56:19;;;;;;;17.80;12.48;;;;;;;;;;10246891;28;20034;-62
2024/02/09 01:01:21;;;;;;;20.45;14.13;;;;;;;;;;10252399;28;20074;-62
2024/02/09 01:06:21;;;;;;;20.13;13.15;;;;;;;;;;10248087;28;20539;-62
2024/02/09 01:11:22;;;;;;;18.88;13.63;;;;;;;;;;10253306;28;20031;-62
2024/02/09 02:46:33;;;;;;;17.08;13.07;;;;;;;;;;10248870;28;20038;-61
2024/02/09 03:07:32;;;;;;;18.25;13.07;;;;;;;;;;10249099;28;20031;-61
2024/02/09 03:12:33;;;;;;;15.52;12.52;;;;;;;;;;10248087;28;20027;-61
2024/02/09 03:17:33;;;;;;;18.13;12.55;;;;;;;;;;10248185;28;20390;-61
2024/02/09 03:22:35;;;;;;;16.02;11.90;;;;;;;;;;10248621;28;20403;-61
2024/02/09 03:27:40;;;;;;;17.02;11.85;;;;;;;;;;10248346;28;20082;-61
2024/02/09 03:32:44;;;;;;;16.20;12.35;;;;;;;;;;10247532;28;20431;-61
2024/02/09 03:37:44;;;;;;;17.65;11.93;;;;;;;;;;10246532;28;20047;-61
2024/02/09 03:42:45;;;;;;;15.32;11.15;;;;;;;;;;10246506;28;20035;-61
2024/02/09 03:47:46;;;;;;;16.77;11.75;;;;;;;;;;10247550;28;20531;-60
2024/02/09 03:52:46;;;;;;;17.08;12.45;;;;;;;;;;10246252;28;20471;-60
2024/02/09 03:57:47;;;;;;;17.05;12.10;;;;;;;;;;10247061;28;20468;-60
2024/02/09 04:02:47;;;;;;;13.77;11.27;;;;;;;;;;10246989;28;20026;-60
2024/02/09 04:07:50;;;;;;;15.70;11.65;;;;;;;;;;10244986;28;20034;-60
2024/02/09 04:12:51;;;;;;;16.38;11.40;;;;;;;;;;10246191;28;20509;-60
2024/02/09 04:17:52;;;;;;;16.65;11.57;;;;;;;;;;10245513;28;20023;-60
2024/02/09 04:22:52;;;;;;;16.35;11.95;;;;;;;;;;10245931;28;20039;-60
2024/02/09 04:27:53;;;;;;;19.95;12.27;;;;;;;;;;10245389;28;20030;-60
2024/02/09 04:32:54;;;;;;;14.85;11.52;;;;;;;;;;10244489;28;20630;-60
2024/02/09 04:37:54;;;;;;;17.92;12.55;;;;;;;;;;10245544;28;20051;-60
2024/02/09 04:42:55;;;;;;;13.85;11.07;;;;;;;;;;10246038;28;20035;-61
2024/02/09 04:47:55;;;;;;;14.65;11.07;;;;;;;;;;10242669;28;20383;-61
2024/02/09 04:52:56;;;;;;;14.85;11.25;;;;;;;;;;10244983;28;20368;-61
2024/02/09 04:57:56;;;;;;;14.93;11.30;;;;;;;;;;10244566;28;20116;-61
2024/02/09 05:02:57;;;;;;;15.70;10.98;;;;;;;;;;10244904;28;20027;-61
2024/02/09 05:07:58;;;;;;;12.80;10.27;;;;;;;;;;10243500;28;20070;-63
2024/02/09 05:13:02;;;;;;;14.35;11.00;;;;;;;;;;10244269;28;20019;-61
2024/02/09 05:18:03;;;;;;;17.50;11.32;;;;;;;;;;10244589;28;20110;-61
2024/02/09 05:23:03;;;;;;;14.25;10.65;;;;;;;;;;10243267;28;20034;-61
2024/02/09 05:28:05;;;;;;;17.45;11.07;;;;;;;;;;10245031;28;20050;-62
2024/02/09 05:33:05;;;;;;;13.02;10.98;;;;;;;;;;10242558;28;20615;-61
2024/02/09 05:38:06;;;;;;;16.33;11.13;;;;;;;;;;10244833;28;20268;-61
2024/02/09 05:43:07;;;;;;;13.18;9.98;;;;;;;;;;10247164;28;20090;-61
2024/02/09 05:48:09;;;;;;;16.00;11.85;;;;;;;;;;10251126;28;20495;-61
2024/02/09 05:53:09;;;;;;;16.40;11.65;;;;;;;;;;10250721;28;20031;-61
2024/02/09 05:58:10;;;;;;;13.63;11.05;;;;;;;;;;10252652;28;20039;-61
2024/02/09 06:03:10;;;;;;;16.23;11.55;;;;;;;;;;10252037;28;20038;-61
2024/02/09 06:08:11;;;;;;;15.95;11.35;;;;;;;;;;10251534;28;20109;-61
2024/02/09 06:13:11;;;;;;;14.15;10.95;;;;;;;;;;10250093;28;20039;-61
2024/02/09 06:18:12;;;;;;;14.10;10.82;;;;;;;;;;10249742;28;20755;-60
2024/02/09 06:23:13;;;;;;;16.20;10.82;;;;;;;;;;10245547;28;20035;-60
2024/02/09 06:28:13;;;;;;;13.80;11.07;;;;;;;;;;10249699;28;20027;-60
2024/02/09 06:33:15;;;;;;;13.05;10.18;;;;;;;;;;10247986;28;20058;-60
2024/02/09 06:38:19;;;;;;;13.52;10.48;;;;;;;;;;10249342;28;20043;-64
2024/02/09 06:43:21;;;;;;;13.23;10.30;;;;;;;;;;10256867;28;20715;-63
2024/02/09 06:48:22;;;;;;;14.27;10.93;;;;;;;;;;10249070;28;20114;-61
2024/02/09 06:53:22;;;;;;;14.82;10.80;;;;;;;;;;10248542;28;20199;-63
2024/02/09 06:58:23;;;;;;;19.85;12.90;;;;;;;;;;10244353;28;20515;-59
2024/02/09 07:03:26;;;;;;;19.30;13.43;;;;;;;;;;10240212;28;20443;-60
2024/02/09 07:08:30;;;;;;;21.45;14.23;;;;;;;;;;10240017;28;20270;-59
2024/02/09 07:13:30;;;;;;;25.85;16.42;;;;;;;;;;10247971;28;20054;-61
2024/02/09 07:18:32;;;;;;;28.45;17.58;;;;;;;;;;10245454;28;20031;-61
2024/02/09 07:23:36;;;;;;;33.30;18.88;;;;;;;;;;10247507;28;20034;-62
2024/02/09 07:28:40;;;;;;;28.92;19.00;;;;;;;;;;10248156;28;20030;-60
2024/02/09 07:33:41;;;;;;;33.53;18.92;;;;;;;;;;10247519;28;20624;-61
2024/02/09 07:38:41;;;;;;;29.60;18.38;;;;;;;;;;10247318;28;20283;-62
2024/02/09 07:43:42;;;;;;;33.22;19.92;;;;;;;;;;10245426;28;20031;-62
2024/02/09 07:48:44;;;;;;;30.65;19.63;;;;;;;;;;10245928;28;20054;-62
2024/02/09 07:53:48;;;;;;;32.30;19.42;;;;;;;;;;10246403;28;20383;-61
2024/02/09 07:58:53;;;;;;;32.67;20.08;;;;;;;;;;10246817;28;20029;-62
2024/02/09 08:03:53;;;;;;;29.30;19.23;;;;;;;;;;10245405;28;20031;-61
2024/02/09 08:08:55;;;;;;;28.20;19.20;;;;;;;;;;10244508;28;20015;-61
2024/02/09 08:13:57;;;;;;;32.70;20.42;;;;;;;;;;10242661;28;20070;-62
2024/02/09 08:18:58;;;;;;;29.23;17.85;;;;;;;;;;10243860;28;20039;-61
2024/02/09 08:24:00;;;;;;;29.95;19.83;;;;;;;;;;10243749;28;20364;-60
2024/02/09 08:29:00;;;;;;;35.20;20.10;;;;;;;;;;10245311;28;20094;-61
2024/02/09 08:34:01;;;;;;;29.23;19.60;;;;;;;;;;10245150;28;20377;-60
2024/02/09 08:39:03;;;;;;;31.85;19.88;;;;;;;;;;10244333;28;20050;-61
2024/02/09 08:44:04;;;;;;;29.77;20.00;;;;;;;;;;10244658;28;20031;-61
2024/02/09 08:49:04;;;;;;;31.92;20.25;;;;;;;;;;10244538;28;20162;-62
2024/02/09 08:54:06;;;;;;;27.75;19.83;;;;;;;;;;10245063;28;20078;-61
2024/02/09 08:59:06;;;;;;;31.92;20.92;;;;;;;;;;10245254;28;20498;-61
2024/02/09 09:04:07;;;;;;;29.38;19.30;;;;;;;;;;10244637;28;20030;-62
2024/02/09 09:09:09;;;;;;;29.40;20.38;;;;;;;;;;10244167;28;20027;-62
2024/02/09 09:14:10;;;;;;;27.63;19.55;;;;;;;;;;10244854;28;20139;-62
2024/02/09 09:19:12;;;;;;;30.48;20.48;;;;;;;;;;10250159;28;20067;-60
2024/02/09 09:24:15;;;;;;;30.83;19.77;;;;;;;;;;10252474;28;20397;-62
2024/02/09 09:29:16;;;;;;;29.02;19.25;;;;;;;;;;10252193;28;20031;-62
2024/02/09 09:34:16;;;;;;;28.75;19.65;;;;;;;;;;10250582;28;20479;-62
2024/02/09 09:39:17;;;;;;;28.33;18.73;;;;;;;;;;10251771;28;20388;-62
2024/02/09 09:44:19;;;;;;;24.30;17.80;;;;;;;;;;10250765;28;20391;-62
2024/02/09 09:49:22;;;;;;;27.52;19.23;;;;;;;;;;10251348;28;20063;-62
2024/02/09 09:54:22;;;;;;;25.42;17.73;;;;;;;;;;10249834;28;20035;-62
2024/02/09 09:59:23;;;;;;;31.80;18.20;;;;;;;;;;10250294;28;20423;-62
2024/02/09 10:04:24;;;;;;;25.65;17.45;;;;;;;;;;10248945;28;20035;-61
2024/02/09 10:09:24;;;;;;;26.08;17.25;;;;;;;;;;10249859;28;20070;-61
2024/02/09 10:14:26;;;;;;;27.85;17.85;;;;;;;;;;10250787;28;20035;-61
2024/02/09 10:19:28;;;;;;;22.33;16.83;;;;;;;;;;10249952;28;20028;-60
2024/02/09 10:24:28;;;;;;;24.35;18.08;;;;;;;;;;10250001;28;20082;-59
2024/02/09 10:29:30;;;;;;;25.45;17.25;;;;;;;;;;10248882;28;20534;-60
2024/02/09 10:34:30;;;;;;;26.20;16.63;;;;;;;;;;10238455;28;20046;-59
2024/02/09 10:39:31;;;;;;;27.30;17.38;;;;;;;;;;10249848;28;20059;-59
2024/02/09 10:44:32;;;;;;;25.15;17.10;;;;;;;;;;10249476;28;20042;-61
2024/02/09 10:49:36;;;;;;;22.95;16.75;;;;;;;;;;10248934;28;20039;-59
2024/02/09 10:54:47;;;;;;;24.25;16.90;;;;;;;;;;10248900;28;20087;-61
2024/02/09 10:59:49;;;;;;;21.00;16.38;;;;;;;;;;10248717;28;20038;-61
2024/02/09 11:04:51;;;;;;;22.35;16.23;;;;;;;;;;10247557;28;20023;-61
2024/02/09 11:09:52;;;;;;;23.08;17.15;;;;;;;;;;10248332;28;20341;-61
2024/02/09 11:14:53;;;;;;;21.10;15.90;;;;;;;;;;10246928;28;20035;-61
2024/02/09 11:19:54;;;;;;;20.27;15.43;;;;;;;;;;10247337;28;20019;-61
2024/02/09 11:24:58;;;;;;;19.83;15.68;;;;;;;;;;10247778;28;20031;-61
2024/02/09 11:29:59;;;;;;;21.60;15.43;;;;;;;;;;10245801;28;20019;-61
2024/02/09 11:35:03;;;;;;;22.10;16.27;;;;;;;;;;10247588;28;20027;-62
2024/02/09 11:40:06;;;;;;;18.63;14.65;;;;;;;;;;10246771;28;20596;-61
2024/02/09 11:45:09;;;;;;;22.75;15.48;;;;;;;;;;10253355;28;20035;-61
2024/02/09 11:50:21;;;;;;;22.77;15.68;;;;;;;;;;10247756;28;20082;-61
2024/02/09 11:55:21;;;;;;;19.55;14.68;;;;;;;;;;10246009;28;20070;-61
2024/02/09 12:00:22;;;;;;;20.67;14.68;;;;;;;;;;10246674;28;20559;-60
2024/02/09 12:05:23;;;;;;;22.42;14.68;;;;;;;;;;10246305;28;20039;-60
2024/02/09 12:10:24;;;;;;;20.75;15.07;;;;;;;;;;10247115;28;20020;-60
2024/02/09 12:15:24;;;;;;;23.33;15.00;;;;;;;;;;10247240;28;20074;-60
2024/02/09 12:20:25;;;;;;;19.13;14.05;;;;;;;;;;10245863;28;20027;-60
2024/02/09 12:25:25;;;;;;;18.50;14.52;;;;;;;;;;10245002;28;20023;-61
2024/02/09 12:30:27;;;;;;;18.98;14.55;;;;;;;;;;10244082;28;20031;-60
2024/02/09 12:35:29;;;;;;;18.90;13.73;;;;;;;;;;10245373;28;20031;-59
2024/02/09 12:40:29;;;;;;;19.73;13.82;;;;;;;;;;10246639;28;20172;-59
2024/02/09 12:45:31;;;;;;;16.88;13.60;;;;;;;;;;10245809;28;20231;-61
2024/02/09 12:50:33;;;;;;;18.30;12.98;;;;;;;;;;10244863;28;20031;-61
2024/02/09 12:55:34;;;;;;;16.25;12.52;;;;;;;;;;10243889;28;20159;-61
2024/02/09 13:00:35;;;;;;;15.60;12.38;;;;;;;;;;10237613;28;20623;-61
2024/02/09 13:05:35;;;;;;;19.08;13.05;;;;;;;;;;10238897;28;20494;-61
2024/02/09 13:10:37;;;;;;;20.73;12.55;;;;;;;;;;10244525;28;20431;-61
2024/02/09 13:15:38;;;;;;;14.70;11.52;;;;;;;;;;10241292;28;20050;-61
2024/02/09 13:20:41;;;;;;;15.82;12.15;;;;;;;;;;10242895;28;20038;-61
2024/02/09 13:25:42;;;;;;;16.38;12.82;;;;;;;;;;10244917;28;20114;-61
2024/02/09 13:30:42;;;;;;;17.80;11.73;;;;;;;;;;10242254;28;20031;-61
2024/02/09 13:35:43;;;;;;;16.52;11.38;;;;;;;;;;10242630;28;20059;-60
2024/02/09 13:40:45;;;;;;;12.98;11.13;;;;;;;;;;10244618;28;20085;-59
2024/02/09 13:45:45;;;;;;;14.75;10.95;;;;;;;;;;10241930;28;20035;-60
2024/02/09 13:50:47;;;;;;;15.00;11.82;;;;;;;;;;10239244;28;20039;-59
2024/02/09 13:55:47;;;;;;;19.83;11.63;;;;;;;;;;10240405;28;20447;-59
2024/02/09 14:00:48;;;;;;;15.27;10.30;;;;;;;;;;10243282;28;20032;-59
2024/02/09 14:05:48;;;;;;;13.60;10.93;;;;;;;;;;10247117;28;20046;-59
2024/02/09 14:10:49;;;;;;;15.32;11.80;;;;;;;;;;10249406;28;20398;-59
2024/02/09 14:15:50;;;;;;;13.68;10.70;;;;;;;;;;10250216;28;20066;-59
2024/02/09 14:20:51;;;;;;;14.43;10.70;;;;;;;;;;10250556;28;20502;-60
2024/02/09 14:25:52;;;;;;;13.82;9.80;;;;;;;;;;10250261;28;20063;-59
2024/02/09 14:30:53;;;;;;;17.10;9.57;;;;;;;;;;10248851;28;20027;-59
2024/02/09 14:35:53;;;;;;;13.10;9.32;;;;;;;;;;10250364;28;20134;-59
2024/02/09 14:40:54;;;;;;;13.60;10.32;;;;;;;;;;10248620;28;20027;-61
2024/02/09 14:45:55;;;;;;;12.20;9.52;;;;;;;;;;10249570;28;20019;-59
2024/02/09 14:50:55;;;;;;;13.48;9.23;;;;;;;;;;10249635;28;20024;-60
2024/02/09 14:55:56;;;;;;;13.15;9.82;;;;;;;;;;10249214;28;20054;-60
2024/02/09 15:00:58;;;;;;;18.02;10.48;;;;;;;;;;10248750;28;20090;-59
2024/02/09 15:05:59;;;;;;;12.25;9.32;;;;;;;;;;10248297;28;20027;-59
2024/02/09 15:10:59;;;;;;;11.40;8.82;;;;;;;;;;10249118;28;20391;-60
2024/02/09 15:16:00;;;;;;;10.85;8.68;;;;;;;;;;10244039;28;20031;-59
2024/02/09 15:21:01;;;;;;;10.70;8.57;;;;;;;;;;10248277;28;20071;-59
2024/02/09 15:26:03;;;;;;;11.50;8.35;;;;;;;;;;10247997;28;20035;-60
2024/02/09 15:31:07;;;;;;;12.90;9.00;;;;;;;;;;10248208;28;20113;-60
2024/02/09 15:36:10;;;;;;;12.18;9.38;;;;;;;;;;10248554;28;20079;-61
2024/02/09 15:41:14;;;;;;;11.48;8.55;;;;;;;;;;10248341;28;20395;-59
2024/02/09 15:46:16;;;;;;;9.45;7.47;;;;;;;;;;10246251;28;20035;-59
2024/02/09 15:51:23;;;;;;;13.07;8.32;;;;;;;;;;10246706;28;20034;-59
2024/02/09 15:56:29;;;;;;;10.80;8.32;;;;;;;;;;10245720;28;20035;-59
2024/02/09 16:01:38;;;;;;;8.90;7.50;;;;;;;;;;10246636;28;20031;-59
2024/02/09 16:06:39;;;;;;;10.18;8.07;;;;;;;;;;10245473;28;20082;-60
2024/02/09 16:11:39;;;;;;;10.25;7.68;;;;;;;;;;10245344;28;20383;-59
2024/02/09 16:16:40;;;;;;;9.23;7.95;;;;;;;;;;10245487;28;20514;-59
2024/02/09 16:21:40;;;;;;;9.43;7.60;;;;;;;;;;10246370;28;20023;-60
2024/02/09 16:26:41;;;;;;;10.02;7.97;;;;;;;;;;10244711;28;20033;-59
2024/02/09 16:31:42;;;;;;;9.00;7.43;;;;;;;;;;10245794;28;20027;-60
2024/02/09 16:36:43;;;;;;;10.43;7.32;;;;;;;;;;10244644;28;20082;-59
2024/02/09 16:41:43;;;;;;;10.10;8.00;;;;;;;;;;10244162;28;20055;-59
2024/02/09 16:46:44;;;;;;;12.40;7.53;;;;;;;;;;10245978;28;20123;-61
2024/02/09 16:51:44;;;;;;;8.77;7.35;;;;;;;;;;10245306;28;20463;-61
2024/02/09 16:56:45;;;;;;;9.60;7.82;;;;;;;;;;10244144;28;20553;-60
2024/02/09 17:01:46;;;;;;;10.80;7.43;;;;;;;;;;10245660;28;20031;-60
2024/02/09 17:06:48;;;;;;;8.25;7.03;;;;;;;;;;10245789;28;20032;-61
2024/02/09 17:11:50;;;;;;;9.85;7.45;;;;;;;;;;10245474;28;20028;-62
2024/02/09 17:16:58;;;;;;;9.38;7.10;;;;;;;;;;10245185;28;20027;-61
2024/02/09 17:21:59;;;;;;;9.40;7.63;;;;;;;;;;10241106;28;20024;-62
2024/02/09 17:27:00;;;;;;;7.82;6.85;;;;;;;;;;10241157;28;20023;-62
2024/02/09 17:32:00;;;;;;;7.70;6.55;;;;;;;;;;10239174;28;20039;-62
2024/02/09 17:37:01;;;;;;;11.20;6.95;;;;;;;;;;10235385;28;20110;-60
2024/02/09 17:42:01;;;;;;;10.98;7.13;;;;;;;;;;10251287;28;20094;-60
2024/02/09 17:47:04;;;;;;;8.95;6.50;;;;;;;;;;10248861;28;20062;-62
2024/02/09 17:52:04;;;;;;;8.93;7.03;;;;;;;;;;10251846;28;20123;-62
2024/02/09 17:57:07;;;;;;;7.93;6.70;;;;;;;;;;10252182;28;20024;-63
2024/02/09 18:02:07;;;;;;;9.13;6.97;;;;;;;;;;10250532;28;20031;-62
2024/02/09 18:07:09;;;;;;;7.82;6.60;;;;;;;;;;10250663;28;20052;-62
2024/02/09 18:12:09;;;;;;;8.75;6.32;;;;;;;;;;10242294;28;20303;-61
2024/02/09 18:17:10;;;;;;;9.77;7.30;;;;;;;;;;10249779;28;20035;-62
2024/02/09 18:22:11;;;;;;;8.32;6.45;;;;;;;;;;10246879;28;20028;-62
2024/02/09 18:27:13;;;;;;;8.02;6.22;;;;;;;;;;10248783;28;20372;-60
2024/02/09 18:32:13;;;;;;;8.88;6.72;;;;;;;;;;10247682;28;20035;-62
2024/02/09 18:37:16;;;;;;;7.25;6.28;;;;;;;;;;10240354;28;20043;-60
2024/02/09 18:42:16;;;;;;;7.32;6.18;;;;;;;;;;10247174;28;20023;-60
2024/02/09 18:47:17;;;;;;;7.50;6.38;;;;;;;;;;10238114;28;20031;-59
2024/02/09 18:52:17;;;;;;;7.78;6.07;;;;;;;;;;10244629;28;20023;-61
2024/02/09 18:57:18;;;;;;;8.85;6.57;;;;;;;;;;10246893;28;20035;-61
2024/02/09 19:02:19;;;;;;;10.98;6.63;;;;;;;;;;10239568;28;20427;-61
2024/02/09 19:07:20;;;;;;;8.13;6.60;;;;;;;;;;10248184;28;20372;-61
2024/02/09 19:12:20;;;;;;;9.23;6.10;;;;;;;;;;10245327;28;20042;-62
2024/02/09 19:17:21;;;;;;;9.07;6.55;;;;;;;;;;10248482;28;20038;-61
2024/02/09 19:22:25;;;;;;;7.57;6.10;;;;;;;;;;10245904;28;20106;-62
2024/02/09 19:27:31;;;;;;;7.13;5.95;;;;;;;;;;10244531;28;20470;-61
2024/02/09 19:32:32;;;;;;;6.68;5.85;;;;;;;;;;10242710;28;20411;-61
2024/02/09 19:37:34;;;;;;;10.63;6.45;;;;;;;;;;10246818;28;20043;-59
2024/02/09 19:42:35;;;;;;;10.98;5.93;;;;;;;;;;10247272;28;20487;-60
2024/02/09 19:47:39;;;;;;;8.13;6.18;;;;;;;;;;10247987;28;20049;-60
2024/02/09 19:52:41;;;;;;;8.52;5.93;;;;;;;;;;10244491;28;20039;-59
2024/02/09 19:57:42;;;;;;;8.45;5.93;;;;;;;;;;10246777;28;20031;-59
2024/02/09 20:02:43;;;;;;;7.70;6.05;;;;;;;;;;10247721;28;20414;-60
2024/02/09 20:07:44;;;;;;;6.65;5.93;;;;;;;;;;10247268;28;20065;-61
2024/02/09 20:12:45;;;;;;;11.57;5.93;;;;;;;;;;10247172;28;20027;-59
2024/02/09 20:17:47;;;;;;;6.50;5.80;;;;;;;;;;10233258;28;20380;-60
2024/02/09 20:22:52;;;;;;;8.45;5.82;;;;;;;;;;10244529;28;20063;-59
2024/02/09 20:27:54;;;;;;;7.03;5.45;;;;;;;;;;10243469;28;20094;-62
2024/02/09 20:32:57;;;;;;;8.52;5.95;;;;;;;;;;10240748;28;20035;-59
2024/02/09 20:37:58;;;;;;;5.57;5.03;;;;;;;;;;10239178;28;20051;-59
2024/02/09 20:43:00;;;;;;;7.07;5.55;;;;;;;;;;10244759;28;20126;-62
2024/02/09 20:48:01;;;;;;;11.43;6.03;;;;;;;;;;10245038;28;20111;-60
2024/02/09 20:53:05;;;;;;;6.88;5.80;;;;;;;;;;10243840;28;20039;-61
2024/02/09 20:58:06;;;;;;;6.85;4.97;;;;;;;;;;10239980;28;20499;-62
2024/02/09 21:03:07;;;;;;;6.15;5.03;;;;;;;;;;10244047;28;20101;-62
2024/02/09 21:08:08;;;;;;;6.13;5.18;;;;;;;;;;10239123;28;20031;-60
2024/02/09 21:13:08;;;;;;;8.05;5.45;;;;;;;;;;10247231;28;20019;-61
2024/02/09 21:18:09;;;;;;;6.82;5.53;;;;;;;;;;10246254;28;20036;-60
2024/02/09 21:23:11;;;;;;;9.20;5.20;;;;;;;;;;10241768;28;20039;-60
2024/02/09 21:28:11;;;;;;;6.63;5.32;;;;;;;;;;10231552;28;20159;-61
2024/02/09 21:33:13;;;;;;;7.40;5.32;;;;;;;;;;10252118;28;20020;-61
2024/02/09 21:38:19;;;;;;;8.57;5.13;;;;;;;;;;10250586;28;20039;-62
2024/02/09 21:43:24;;;;;;;6.10;4.47;;;;;;;;;;10247588;28;20047;-61
2024/02/09 21:48:24;;;;;;;7.00;5.00;;;;;;;;;;10251835;28;20066;-60
2024/02/09 21:53:25;;;;;;;6.72;5.20;;;;;;;;;;10253020;28;20102;-61
2024/02/09 21:58:26;;;;;;;7.47;5.38;;;;;;;;;;10249936;28;20399;-63
2024/02/09 22:03:26;;;;;;;6.75;5.45;;;;;;;;;;10248687;28;20106;-61
2024/02/09 22:08:27;;;;;;;5.60;5.10;;;;;;;;;;10250366;28;20035;-61
2024/02/09 22:13:28;;;;;;;7.40;4.72;;;;;;;;;;10249839;28;20039;-62
2024/02/09 22:18:29;;;;;;;7.15;5.10;;;;;;;;;;10246965;28;20032;-60
2024/02/09 22:23:30;;;;;;;5.00;4.50;;;;;;;;;;10249267;28;20062;-62
2024/02/09 22:28:33;;;;;;;8.23;5.00;;;;;;;;;;10241530;28;20075;-62
2024/02/09 22:33:35;;;;;;;6.90;5.20;;;;;;;;;;10238366;28;20036;-62
2024/02/09 22:38:37;;;;;;;5.20;4.43;;;;;;;;;;10250251;28;20043;-61
2024/02/09 22:43:37;;;;;;;6.72;4.82;;;;;;;;;;10248894;28;20406;-61
2024/02/09 22:48:43;;;;;;;6.72;5.30;;;;;;;;;;10249312;28;20027;-60
2024/02/09 22:53:43;;;;;;;4.93;4.40;;;;;;;;;;10250204;28;20106;-61
2024/02/09 22:58:44;;;;;;;6.82;4.78;;;;;;;;;;10247273;28;20431;-62
2024/02/09 23:03:46;;;;;;;6.03;4.88;;;;;;;;;;10247806;28;20692;-61
2024/02/09 23:08:52;;;;;;;5.15;4.57;;;;;;;;;;10246331;28;20118;-63
2024/02/09 23:13:52;;;;;;;6.65;5.20;;;;;;;;;;10248806;28;20039;-61
2024/02/09 23:18:55;;;;;;;6.60;4.93;;;;;;;;;;10248541;28;20027;-63
2024/02/09 23:23:56;;;;;;;5.57;4.40;;;;;;;;;;10248530;28;20495;-63
2024/02/09 23:28:58;;;;;;;7.80;4.88;;;;;;;;;;10244748;28;20121;-63
2024/02/09 23:33:59;;;;;;;6.05;4.72;;;;;;;;;;10248386;28;20143;-63
2024/02/09 23:39:04;;;;;;;7.03;4.63;;;;;;;;;;10246927;28;20164;-63
2024/02/09 23:44:05;;;;;;;7.32;4.75;;;;;;;;;;10249551;28;20035;-62
2024/02/09 23:49:07;;;;;;;6.18;5.22;;;;;;;;;;10247138;28;22220;-65
2024/02/09 23:54:09;;;;;;;5.18;4.50;;;;;;;;;;10247793;28;20431;-62
2024/02/09 23:59:12;;;;;;;5.03;4.13;;;;;;;;;;10246703;28;20031;-64
